西安 の空港の天気 - METARとTAF

西安咸陽国際空港 ( ZLXY / XIY ) - 中国 陝西省西安市
飛行場実況気象(Metar)
観測時間12/17 00:00 CST (12/16 16:00 UTC)
風向・風速北北東 1m/s
視程5000m
天気現象もや
なし
気温-7℃
湿度79%
気圧1040hPa
METARZLXY 161600Z 02001MPS 5000 BR NSC M07/M10 Q1040 NOSIG
過去の天気等 Google飛行場航空写真 Wunderground天気予報

過去48時間のMETAR

飛行場予報(TAF)
発表時間: 12/16 17:12 CST (12/16 09:12 UTC)
予報対象時間: 16日20時 CST ~ 17日20時 CST
風向・風速東 3m/s
視程3,000m
天気現象煙霧
なし
TAF ZLXY 160912Z 1612/1712 10003MPS 3000 HZ NSC TX06/1707Z TNM08/23Z